sensor_id;sensor_type;location;lat;lon;timestamp;temperature;humidity
9118;DHT22;4594;50.994;7.126;2023-02-22T00:00:43;8.10;48.40
9118;DHT22;4594;50.994;7.126;2023-02-22T00:03:19;8.00;48.30
9118;DHT22;4594;50.994;7.126;2023-02-22T00:05:55;8.00;48.40
9118;DHT22;4594;50.994;7.126;2023-02-22T00:08:28;8.00;48.30
9118;DHT22;4594;50.994;7.126;2023-02-22T00:10:57;7.90;48.20
9118;DHT22;4594;50.994;7.126;2023-02-22T00:13:24;7.90;48.30
9118;DHT22;4594;50.994;7.126;2023-02-22T00:15:53;7.90;48.30
9118;DHT22;4594;50.994;7.126;2023-02-22T00:18:20;7.90;48.30
9118;DHT22;4594;50.994;7.126;2023-02-22T00:20:46;7.80;48.20
9118;DHT22;4594;50.994;7.126;2023-02-22T00:23:18;7.80;48.20
9118;DHT22;4594;50.994;7.126;2023-02-22T00:25:48;7.80;48.40
9118;DHT22;4594;50.994;7.126;2023-02-22T00:28:16;7.80;48.30
9118;DHT22;4594;50.994;7.126;2023-02-22T00:30:43;7.70;48.30
9118;DHT22;4594;50.994;7.126;2023-02-22T00:33:13;7.70;48.30
9118;DHT22;4594;50.994;7.126;2023-02-22T00:35:41;7.70;48.50
9118;DHT22;4594;50.994;7.126;2023-02-22T00:38:10;7.70;48.50
9118;DHT22;4594;50.994;7.126;2023-02-22T00:40:37;7.70;48.60
9118;DHT22;4594;50.994;7.126;2023-02-22T00:43:05;7.70;48.60
9118;DHT22;4594;50.994;7.126;2023-02-22T00:45:32;7.60;48.60
9118;DHT22;4594;50.994;7.126;2023-02-22T00:48:00;7.70;48.80
9118;DHT22;4594;50.994;7.126;2023-02-22T00:50:28;7.70;48.80
9118;DHT22;4594;50.994;7.126;2023-02-22T00:52:56;7.70;48.90
9118;DHT22;4594;50.994;7.126;2023-02-22T00:55:28;7.70;48.90
9118;DHT22;4594;50.994;7.126;2023-02-22T00:57:56;7.70;49.00
9118;DHT22;4594;50.994;7.126;2023-02-22T01:00:28;7.70;49.00
9118;DHT22;4594;50.994;7.126;2023-02-22T01:02:57;7.70;49.00
9118;DHT22;4594;50.994;7.126;2023-02-22T01:05:26;7.80;49.00
9118;DHT22;4594;50.994;7.126;2023-02-22T01:07:54;7.80;49.00
9118;DHT22;4594;50.994;7.126;2023-02-22T01:10:23;7.80;49.00
9118;DHT22;4594;50.994;7.126;2023-02-22T01:12:52;7.80;48.90
9118;DHT22;4594;50.994;7.126;2023-02-22T01:15:20;7.80;48.80
9118;DHT22;4594;50.994;7.126;2023-02-22T01:17:52;7.80;48.70
9118;DHT22;4594;50.994;7.126;2023-02-22T01:20:18;7.70;48.60
9118;DHT22;4594;50.994;7.126;2023-02-22T01:22:48;7.70;48.50
9118;DHT22;4594;50.994;7.126;2023-02-22T01:25:17;7.70;48.40
9118;DHT22;4594;50.994;7.126;2023-02-22T01:27:47;7.70;48.40
9118;DHT22;4594;50.994;7.126;2023-02-22T01:30:16;7.60;48.30
9118;DHT22;4594;50.994;7.126;2023-02-22T01:32:45;7.60;48.20
9118;DHT22;4594;50.994;7.126;2023-02-22T01:35:16;7.50;48.10
9118;DHT22;4594;50.994;7.126;2023-02-22T01:37:52;7.50;48.10
9118;DHT22;4594;50.994;7.126;2023-02-22T01:40:21;7.50;47.90
9118;DHT22;4594;50.994;7.126;2023-02-22T01:43:30;7.40;48.10
9118;DHT22;4594;50.994;7.126;2023-02-22T01:46:04;7.30;47.70
9118;DHT22;4594;50.994;7.126;2023-02-22T01:48:47;7.30;47.70
9118;DHT22;4594;50.994;7.126;2023-02-22T01:54:15;7.20;47.60
9118;DHT22;4594;50.994;7.126;2023-02-22T01:57:11;7.10;47.70
9118;DHT22;4594;50.994;7.126;2023-02-22T01:59:45;7.10;47.70
9118;DHT22;4594;50.994;7.126;2023-02-22T02:02:14;7.00;47.50
9118;DHT22;4594;50.994;7.126;2023-02-22T02:04:40;6.90;47.40
9118;DHT22;4594;50.994;7.126;2023-02-22T02:07:09;6.90;47.50
9118;DHT22;4594;50.994;7.126;2023-02-22T02:09:56;6.80;47.50
9118;DHT22;4594;50.994;7.126;2023-02-22T02:12:24;6.80;47.60
9118;DHT22;4594;50.994;7.126;2023-02-22T02:14:53;6.70;47.30
9118;DHT22;4594;50.994;7.126;2023-02-22T02:17:48;6.70;47.30
9118;DHT22;4594;50.994;7.126;2023-02-22T02:20:24;6.60;47.20
9118;DHT22;4594;50.994;7.126;2023-02-22T02:26:42;6.50;47.20
9118;DHT22;4594;50.994;7.126;2023-02-22T02:29:40;6.50;47.10
9118;DHT22;4594;50.994;7.126;2023-02-22T02:38:15;6.30;47.10
9118;DHT22;4594;50.994;7.126;2023-02-22T02:41:14;6.20;47.10
9118;DHT22;4594;50.994;7.126;2023-02-22T02:44:04;6.20;47.20
9118;DHT22;4594;50.994;7.126;2023-02-22T02:47:00;6.20;47.30
9118;DHT22;4594;50.994;7.126;2023-02-22T02:49:43;6.10;47.40
9118;DHT22;4594;50.994;7.126;2023-02-22T02:52:17;6.00;47.20
9118;DHT22;4594;50.994;7.126;2023-02-22T02:54:45;6.00;47.10
9118;DHT22;4594;50.994;7.126;2023-02-22T02:57:12;6.00;47.10
9118;DHT22;4594;50.994;7.126;2023-02-22T02:59:37;6.00;47.20
9118;DHT22;4594;50.994;7.126;2023-02-22T03:08:58;5.90;47.70
9118;DHT22;4594;50.994;7.126;2023-02-22T03:11:39;5.90;47.80
9118;DHT22;4594;50.994;7.126;2023-02-22T03:14:51;5.90;48.00
9118;DHT22;4594;50.994;7.126;2023-02-22T03:20:40;5.90;48.00
9118;DHT22;4594;50.994;7.126;2023-02-22T03:23:25;5.80;47.70
9118;DHT22;4594;50.994;7.126;2023-02-22T03:26:03;5.80;47.80
9118;DHT22;4594;50.994;7.126;2023-02-22T03:28:33;5.80;47.70
9118;DHT22;4594;50.994;7.126;2023-02-22T03:31:05;5.80;47.60
9118;DHT22;4594;50.994;7.126;2023-02-22T03:38:50;5.80;47.80
9118;DHT22;4594;50.994;7.126;2023-02-22T03:41:23;5.70;47.50
9118;DHT22;4594;50.994;7.126;2023-02-22T03:44:01;5.70;47.50
9118;DHT22;4594;50.994;7.126;2023-02-22T03:46:30;5.70;47.50
9118;DHT22;4594;50.994;7.126;2023-02-22T03:49:13;5.70;47.40
9118;DHT22;4594;50.994;7.126;2023-02-22T03:52:00;5.60;47.50
9118;DHT22;4594;50.994;7.126;2023-02-22T03:54:27;5.60;47.20
9118;DHT22;4594;50.994;7.126;2023-02-22T03:56:56;5.60;47.20
9118;DHT22;4594;50.994;7.126;2023-02-22T03:59:25;5.60;47.30
9118;DHT22;4594;50.994;7.126;2023-02-22T04:01:53;5.50;47.20
9118;DHT22;4594;50.994;7.126;2023-02-22T04:04:19;5.50;47.30
9118;DHT22;4594;50.994;7.126;2023-02-22T04:06:46;5.50;47.30
9118;DHT22;4594;50.994;7.126;2023-02-22T04:09:15;5.50;47.30
9118;DHT22;4594;50.994;7.126;2023-02-22T04:11:41;5.50;47.40
9118;DHT22;4594;50.994;7.126;2023-02-22T04:14:07;5.40;47.30
9118;DHT22;4594;50.994;7.126;2023-02-22T04:16:33;5.40;47.30
9118;DHT22;4594;50.994;7.126;2023-02-22T04:18:59;5.40;47.40
9118;DHT22;4594;50.994;7.126;2023-02-22T04:21:25;5.40;47.40
9118;DHT22;4594;50.994;7.126;2023-02-22T04:23:51;5.40;47.40
9118;DHT22;4594;50.994;7.126;2023-02-22T04:26:16;5.40;47.50
9118;DHT22;4594;50.994;7.126;2023-02-22T04:28:42;5.40;47.60
9118;DHT22;4594;50.994;7.126;2023-02-22T04:31:08;5.40;47.60
9118;DHT22;4594;50.994;7.126;2023-02-22T04:33:34;5.40;47.70
9118;DHT22;4594;50.994;7.126;2023-02-22T04:35:59;5.40;47.60
9118;DHT22;4594;50.994;7.126;2023-02-22T04:38:25;5.40;47.60
9118;DHT22;4594;50.994;7.126;2023-02-22T04:40:52;5.40;47.60
9118;DHT22;4594;50.994;7.126;2023-02-22T04:43:18;5.40;47.60
9118;DHT22;4594;50.994;7.126;2023-02-22T04:45:44;5.30;47.50
9118;DHT22;4594;50.994;7.126;2023-02-22T04:48:10;5.30;47.50
9118;DHT22;4594;50.994;7.126;2023-02-22T04:50:36;5.30;47.50
9118;DHT22;4594;50.994;7.126;2023-02-22T04:53:02;5.30;47.40
9118;DHT22;4594;50.994;7.126;2023-02-22T04:55:28;5.30;47.40
9118;DHT22;4594;50.994;7.126;2023-02-22T04:57:55;5.30;47.50
9118;DHT22;4594;50.994;7.126;2023-02-22T05:00:22;5.30;47.50
9118;DHT22;4594;50.994;7.126;2023-02-22T05:02:49;5.30;47.60
9118;DHT22;4594;50.994;7.126;2023-02-22T05:05:16;5.20;47.60
9118;DHT22;4594;50.994;7.126;2023-02-22T05:07:46;5.20;47.50
9118;DHT22;4594;50.994;7.126;2023-02-22T05:10:12;5.20;47.60
9118;DHT22;4594;50.994;7.126;2023-02-22T05:12:39;5.20;47.60
9118;DHT22;4594;50.994;7.126;2023-02-22T05:15:06;5.20;47.70
9118;DHT22;4594;50.994;7.126;2023-02-22T05:17:33;5.30;47.90
9118;DHT22;4594;50.994;7.126;2023-02-22T05:19:59;5.20;47.80
9118;DHT22;4594;50.994;7.126;2023-02-22T05:22:27;5.30;48.00
9118;DHT22;4594;50.994;7.126;2023-02-22T05:24:53;5.30;48.00
9118;DHT22;4594;50.994;7.126;2023-02-22T05:27:19;5.30;48.10
9118;DHT22;4594;50.994;7.126;2023-02-22T05:29:45;5.30;48.10
9118;DHT22;4594;50.994;7.126;2023-02-22T05:32:11;5.30;48.10
9118;DHT22;4594;50.994;7.126;2023-02-22T05:34:37;5.30;48.10
9118;DHT22;4594;50.994;7.126;2023-02-22T05:37:03;5.40;48.20
9118;DHT22;4594;50.994;7.126;2023-02-22T05:39:29;5.40;48.20
9118;DHT22;4594;50.994;7.126;2023-02-22T05:41:55;5.40;48.20
9118;DHT22;4594;50.994;7.126;2023-02-22T05:44:21;5.40;48.10
9118;DHT22;4594;50.994;7.126;2023-02-22T05:46:47;5.40;48.10
9118;DHT22;4594;50.994;7.126;2023-02-22T05:49:13;5.40;48.20
9118;DHT22;4594;50.994;7.126;2023-02-22T05:51:40;5.40;48.20
9118;DHT22;4594;50.994;7.126;2023-02-22T05:54:06;5.10;48.00
9118;DHT22;4594;50.994;7.126;2023-02-22T05:56:31;5.40;48.20
9118;DHT22;4594;50.994;7.126;2023-02-22T05:58:58;5.40;48.20
9118;DHT22;4594;50.994;7.126;2023-02-22T06:01:24;5.40;48.20
9118;DHT22;4594;50.994;7.126;2023-02-22T06:03:51;5.40;48.20
9118;DHT22;4594;50.994;7.126;2023-02-22T06:06:18;5.40;48.30
9118;DHT22;4594;50.994;7.126;2023-02-22T06:08:47;5.50;48.40
9118;DHT22;4594;50.994;7.126;2023-02-22T06:11:13;5.50;48.40
9118;DHT22;4594;50.994;7.126;2023-02-22T06:13:39;5.50;48.50
9118;DHT22;4594;50.994;7.126;2023-02-22T06:16:05;5.50;48.50
9118;DHT22;4594;50.994;7.126;2023-02-22T06:18:31;5.50;48.50
9118;DHT22;4594;50.994;7.126;2023-02-22T06:20:58;5.60;48.60
9118;DHT22;4594;50.994;7.126;2023-02-22T06:23:25;5.60;48.50
9118;DHT22;4594;50.994;7.126;2023-02-22T06:25:51;5.60;48.50
9118;DHT22;4594;50.994;7.126;2023-02-22T06:28:17;5.60;48.50
9118;DHT22;4594;50.994;7.126;2023-02-22T06:30:43;5.60;48.40
9118;DHT22;4594;50.994;7.126;2023-02-22T06:33:09;5.60;48.40
9118;DHT22;4594;50.994;7.126;2023-02-22T06:35:35;5.60;48.40
9118;DHT22;4594;50.994;7.126;2023-02-22T06:38:01;5.70;48.50
9118;DHT22;4594;50.994;7.126;2023-02-22T06:40:27;5.60;48.50
9118;DHT22;4594;50.994;7.126;2023-02-22T06:42:54;5.70;48.60
9118;DHT22;4594;50.994;7.126;2023-02-22T06:45:21;5.70;48.60
9118;DHT22;4594;50.994;7.126;2023-02-22T06:47:47;5.70;48.70
9118;DHT22;4594;50.994;7.126;2023-02-22T06:50:28;5.70;48.70
9118;DHT22;4594;50.994;7.126;2023-02-22T06:52:55;5.70;48.90
9118;DHT22;4594;50.994;7.126;2023-02-22T06:55:24;5.80;48.90
9118;DHT22;4594;50.994;7.126;2023-02-22T06:57:52;5.80;49.00
9118;DHT22;4594;50.994;7.126;2023-02-22T07:00:20;5.80;49.20
9118;DHT22;4594;50.994;7.126;2023-02-22T07:02:48;5.90;49.50
9118;DHT22;4594;50.994;7.126;2023-02-22T07:05:16;6.00;49.70
9118;DHT22;4594;50.994;7.126;2023-02-22T07:07:45;6.00;49.90
9118;DHT22;4594;50.994;7.126;2023-02-22T07:10:19;6.90;50.60
9118;DHT22;4594;50.994;7.126;2023-02-22T07:12:45;6.20;50.60
9118;DHT22;4594;50.994;7.126;2023-02-22T07:15:11;6.30;50.40
9118;DHT22;4594;50.994;7.126;2023-02-22T07:17:38;6.40;50.60
9118;DHT22;4594;50.994;7.126;2023-02-22T07:20:06;6.50;50.70
9118;DHT22;4594;50.994;7.126;2023-02-22T07:22:32;6.60;50.90
9118;DHT22;4594;50.994;7.126;2023-02-22T07:24:58;6.70;51.00
9118;DHT22;4594;50.994;7.126;2023-02-22T07:27:24;6.90;51.30
9118;DHT22;4594;50.994;7.126;2023-02-22T07:29:50;7.00;51.60
9118;DHT22;4594;50.994;7.126;2023-02-22T07:32:16;7.10;51.90
9118;DHT22;4594;50.994;7.126;2023-02-22T07:34:41;7.30;52.20
9118;DHT22;4594;50.994;7.126;2023-02-22T07:37:07;7.50;52.40
9118;DHT22;4594;50.994;7.126;2023-02-22T07:39:33;7.70;52.70
9118;DHT22;4594;50.994;7.126;2023-02-22T07:41:59;7.90;52.90
9118;DHT22;4594;50.994;7.126;2023-02-22T07:44:25;8.00;53.00
9118;DHT22;4594;50.994;7.126;2023-02-22T07:46:50;8.20;53.00
9118;DHT22;4594;50.994;7.126;2023-02-22T07:49:16;8.30;53.00
9118;DHT22;4594;50.994;7.126;2023-02-22T07:51:42;8.50;53.10
9118;DHT22;4594;50.994;7.126;2023-02-22T07:54:08;8.70;53.10
9118;DHT22;4594;50.994;7.126;2023-02-22T07:56:33;8.80;53.30
9118;DHT22;4594;50.994;7.126;2023-02-22T07:58:59;9.00;53.40
9118;DHT22;4594;50.994;7.126;2023-02-22T08:01:26;9.20;53.60
9118;DHT22;4594;50.994;7.126;2023-02-22T08:03:51;9.40;53.80
9118;DHT22;4594;50.994;7.126;2023-02-22T08:06:18;9.60;54.00
9118;DHT22;4594;50.994;7.126;2023-02-22T08:08:45;9.80;54.20
9118;DHT22;4594;50.994;7.126;2023-02-22T08:11:11;10.10;53.60
9118;DHT22;4594;50.994;7.126;2023-02-22T08:13:38;10.30;53.70
9118;DHT22;4594;50.994;7.126;2023-02-22T08:16:04;10.50;53.70
9118;DHT22;4594;50.994;7.126;2023-02-22T08:18:29;10.80;53.90
9118;DHT22;4594;50.994;7.126;2023-02-22T08:20:55;11.10;54.20
9118;DHT22;4594;50.994;7.126;2023-02-22T08:23:23;11.30;54.00
9118;DHT22;4594;50.994;7.126;2023-02-22T08:25:51;11.50;54.00
9118;DHT22;4594;50.994;7.126;2023-02-22T08:28:20;11.80;53.80
9118;DHT22;4594;50.994;7.126;2023-02-22T08:30:48;12.00;53.70
9118;DHT22;4594;50.994;7.126;2023-02-22T08:33:15;12.20;53.90
9118;DHT22;4594;50.994;7.126;2023-02-22T08:35:45;12.40;53.90
9118;DHT22;4594;50.994;7.126;2023-02-22T08:40:49;12.90;53.40
9118;DHT22;4594;50.994;7.126;2023-02-22T08:43:16;13.20;53.80
9118;DHT22;4594;50.994;7.126;2023-02-22T08:45:43;13.40;54.00
9118;DHT22;4594;50.994;7.126;2023-02-22T08:48:10;13.70;53.90
9118;DHT22;4594;50.994;7.126;2023-02-22T08:50:36;14.00;53.70
9118;DHT22;4594;50.994;7.126;2023-02-22T08:53:03;14.20;53.30
9118;DHT22;4594;50.994;7.126;2023-02-22T08:55:32;14.40;52.70
9118;DHT22;4594;50.994;7.126;2023-02-22T08:58:00;14.60;52.30
9118;DHT22;4594;50.994;7.126;2023-02-22T09:00:31;14.80;52.30
9118;DHT22;4594;50.994;7.126;2023-02-22T09:03:11;15.00;52.50
9118;DHT22;4594;50.994;7.126;2023-02-22T09:05:38;15.30;51.70
9118;DHT22;4594;50.994;7.126;2023-02-22T09:08:05;15.50;52.60
9118;DHT22;4594;50.994;7.126;2023-02-22T09:10:33;15.70;52.30
9118;DHT22;4594;50.994;7.126;2023-02-22T09:13:00;15.90;51.30
9118;DHT22;4594;50.994;7.126;2023-02-22T09:15:26;16.10;51.00
9118;DHT22;4594;50.994;7.126;2023-02-22T09:17:53;16.20;50.70
9118;DHT22;4594;50.994;7.126;2023-02-22T09:20:20;16.40;50.50
9118;DHT22;4594;50.994;7.126;2023-02-22T09:22:48;16.50;50.00
9118;DHT22;4594;50.994;7.126;2023-02-22T09:25:14;16.60;49.80
9118;DHT22;4594;50.994;7.126;2023-02-22T09:27:41;16.80;49.40
9118;DHT22;4594;50.994;7.126;2023-02-22T09:30:14;16.90;49.20
9118;DHT22;4594;50.994;7.126;2023-02-22T09:32:42;17.00;48.90
9118;DHT22;4594;50.994;7.126;2023-02-22T09:35:07;17.10;48.60
9118;DHT22;4594;50.994;7.126;2023-02-22T09:37:33;17.20;48.50
9118;DHT22;4594;50.994;7.126;2023-02-22T09:39:59;17.30;48.40
9118;DHT22;4594;50.994;7.126;2023-02-22T09:42:38;17.40;47.90
9118;DHT22;4594;50.994;7.126;2023-02-22T09:45:22;17.40;46.70
9118;DHT22;4594;50.994;7.126;2023-02-22T09:48:02;17.40;46.20
9118;DHT22;4594;50.994;7.126;2023-02-22T09:50:38;17.50;46.90
9118;DHT22;4594;50.994;7.126;2023-02-22T09:53:24;17.50;46.40
9118;DHT22;4594;50.994;7.126;2023-02-22T09:56:00;17.60;45.70
9118;DHT22;4594;50.994;7.126;2023-02-22T09:58:51;17.60;45.80
9118;DHT22;4594;50.994;7.126;2023-02-22T10:01:28;17.60;45.50
9118;DHT22;4594;50.994;7.126;2023-02-22T10:04:22;17.60;45.80
9118;DHT22;4594;50.994;7.126;2023-02-22T10:09:33;17.90;45.60
9118;DHT22;4594;50.994;7.126;2023-02-22T10:12:13;18.00;46.20
9118;DHT22;4594;50.994;7.126;2023-02-22T10:15:19;18.10;45.60
9118;DHT22;4594;50.994;7.126;2023-02-22T10:21:12;18.50;47.20
9118;DHT22;4594;50.994;7.126;2023-02-22T10:24:39;18.80;46.10
9118;DHT22;4594;50.994;7.126;2023-02-22T10:27:37;19.10;46.20
9118;DHT22;4594;50.994;7.126;2023-02-22T10:30:18;19.60;46.10
9118;DHT22;4594;50.994;7.126;2023-02-22T10:32:54;19.80;47.00
9118;DHT22;4594;50.994;7.126;2023-02-22T10:35:32;20.10;46.70
9118;DHT22;4594;50.994;7.126;2023-02-22T10:38:18;20.30;45.80
9118;DHT22;4594;50.994;7.126;2023-02-22T10:43:39;20.70;45.30
9118;DHT22;4594;50.994;7.126;2023-02-22T10:46:07;20.80;44.90
9118;DHT22;4594;50.994;7.126;2023-02-22T10:48:39;21.00;45.70
9118;DHT22;4594;50.994;7.126;2023-02-22T10:51:09;21.20;45.50
9118;DHT22;4594;50.994;7.126;2023-02-22T10:53:36;21.30;45.30
9118;DHT22;4594;50.994;7.126;2023-02-22T10:56:22;21.50;44.90
9118;DHT22;4594;50.994;7.126;2023-02-22T10:58:55;21.50;42.60
9118;DHT22;4594;50.994;7.126;2023-02-22T11:04:13;21.40;42.30
9118;DHT22;4594;50.994;7.126;2023-02-22T11:06:44;21.30;41.40
9118;DHT22;4594;50.994;7.126;2023-02-22T11:09:16;21.10;41.80
9118;DHT22;4594;50.994;7.126;2023-02-22T11:11:50;21.00;41.30
9118;DHT22;4594;50.994;7.126;2023-02-22T11:14:32;20.80;41.10
9118;DHT22;4594;50.994;7.126;2023-02-22T11:16:59;20.70;40.90
9118;DHT22;4594;50.994;7.126;2023-02-22T11:19:31;20.40;40.50
9118;DHT22;4594;50.994;7.126;2023-02-22T11:24:29;20.10;39.80
9118;DHT22;4594;50.994;7.126;2023-02-22T11:27:02;20.00;40.30
9118;DHT22;4594;50.994;7.126;2023-02-22T11:29:36;19.90;39.90
9118;DHT22;4594;50.994;7.126;2023-02-22T11:32:14;19.70;40.50
9118;DHT22;4594;50.994;7.126;2023-02-22T11:34:47;19.60;39.40
9118;DHT22;4594;50.994;7.126;2023-02-22T11:39:47;19.40;39.90
9118;DHT22;4594;50.994;7.126;2023-02-22T11:42:22;19.30;39.60
9118;DHT22;4594;50.994;7.126;2023-02-22T11:48:05;19.10;38.20
9118;DHT22;4594;50.994;7.126;2023-02-22T11:53:39;18.80;38.40
9118;DHT22;4594;50.994;7.126;2023-02-22T11:56:21;18.70;38.80
9118;DHT22;4594;50.994;7.126;2023-02-22T11:59:09;18.60;38.80
9118;DHT22;4594;50.994;7.126;2023-02-22T12:01:54;18.50;39.20
9118;DHT22;4594;50.994;7.126;2023-02-22T12:07:36;18.40;38.00
9118;DHT22;4594;50.994;7.126;2023-02-22T12:16:56;18.20;38.30
9118;DHT22;4594;50.994;7.126;2023-02-22T12:19:43;18.10;38.00
9118;DHT22;4594;50.994;7.126;2023-02-22T12:23:19;18.10;38.80
9118;DHT22;4594;50.994;7.126;2023-02-22T12:26:43;18.00;38.40
9118;DHT22;4594;50.994;7.126;2023-02-22T12:29:05;17.90;38.60
9118;DHT22;4594;50.994;7.126;2023-02-22T12:31:45;17.90;38.80
9118;DHT22;4594;50.994;7.126;2023-02-22T12:34:20;17.90;39.10
9118;DHT22;4594;50.994;7.126;2023-02-22T12:37:04;17.80;39.00
9118;DHT22;4594;50.994;7.126;2023-02-22T12:43:17;17.80;38.20
9118;DHT22;4594;50.994;7.126;2023-02-22T12:45:49;17.70;38.70
9118;DHT22;4594;50.994;7.126;2023-02-22T13:03:38;17.40;38.20
9118;DHT22;4594;50.994;7.126;2023-02-22T13:12:44;17.30;38.00
9118;DHT22;4594;50.994;7.126;2023-02-22T13:21:45;17.20;38.00
9118;DHT22;4594;50.994;7.126;2023-02-22T13:24:31;17.10;38.20
9118;DHT22;4594;50.994;7.126;2023-02-22T13:27:27;17.10;38.10
9118;DHT22;4594;50.994;7.126;2023-02-22T13:30:00;17.10;38.20
9118;DHT22;4594;50.994;7.126;2023-02-22T13:35:31;17.00;38.10
9118;DHT22;4594;50.994;7.126;2023-02-22T13:52:56;16.80;38.00
9118;DHT22;4594;50.994;7.126;2023-02-22T13:55:32;16.80;38.40
9118;DHT22;4594;50.994;7.126;2023-02-22T13:58:07;16.80;38.00
9118;DHT22;4594;50.994;7.126;2023-02-22T14:00:48;16.80;38.30
9118;DHT22;4594;50.994;7.126;2023-02-22T14:09:50;16.90;38.40
9118;DHT22;4594;50.994;7.126;2023-02-22T14:17:44;17.00;38.30
9118;DHT22;4594;50.994;7.126;2023-02-22T14:22:42;17.00;38.50
9118;DHT22;4594;50.994;7.126;2023-02-22T14:25:38;17.10;38.50
9118;DHT22;4594;50.994;7.126;2023-02-22T14:28:08;17.10;38.00
9118;DHT22;4594;50.994;7.126;2023-02-22T14:31:12;17.10;38.60
9118;DHT22;4594;50.994;7.126;2023-02-22T14:33:57;17.10;38.20
9118;DHT22;4594;50.994;7.126;2023-02-22T14:36:31;17.10;38.10
9118;DHT22;4594;50.994;7.126;2023-02-22T14:42:07;17.10;38.00
9118;DHT22;4594;50.994;7.126;2023-02-22T14:47:42;17.10;38.00
9118;DHT22;4594;50.994;7.126;2023-02-22T14:52:42;17.20;38.40
9118;DHT22;4594;50.994;7.126;2023-02-22T14:55:19;17.20;38.40
9118;DHT22;4594;50.994;7.126;2023-02-22T14:58:14;17.20;38.10
9118;DHT22;4594;50.994;7.126;2023-02-22T15:00:49;17.20;38.00
9118;DHT22;4594;50.994;7.126;2023-02-22T15:05:47;17.20;38.20
9118;DHT22;4594;50.994;7.126;2023-02-22T15:08:16;17.20;38.20
9118;DHT22;4594;50.994;7.126;2023-02-22T15:10:44;17.20;38.20
9118;DHT22;4594;50.994;7.126;2023-02-22T15:13:19;17.10;38.10
9118;DHT22;4594;50.994;7.126;2023-02-22T15:15:54;17.10;37.80
9118;DHT22;4594;50.994;7.126;2023-02-22T15:18:39;17.10;37.90
9118;DHT22;4594;50.994;7.126;2023-02-22T15:21:16;17.10;37.70
9118;DHT22;4594;50.994;7.126;2023-02-22T15:26:26;17.10;38.00
9118;DHT22;4594;50.994;7.126;2023-02-22T15:29:00;17.10;38.10
9118;DHT22;4594;50.994;7.126;2023-02-22T15:31:35;17.10;38.10
9118;DHT22;4594;50.994;7.126;2023-02-22T15:34:19;17.10;37.90
9118;DHT22;4594;50.994;7.126;2023-02-22T15:36:53;17.10;37.90
9118;DHT22;4594;50.994;7.126;2023-02-22T15:39:24;17.10;38.10
9118;DHT22;4594;50.994;7.126;2023-02-22T15:42:16;17.10;38.00
9118;DHT22;4594;50.994;7.126;2023-02-22T15:44:53;17.00;37.60
9118;DHT22;4594;50.994;7.126;2023-02-22T15:47:27;17.00;37.70
9118;DHT22;4594;50.994;7.126;2023-02-22T15:53:04;17.00;37.60
9118;DHT22;4594;50.994;7.126;2023-02-22T15:55:35;17.00;37.90
9118;DHT22;4594;50.994;7.126;2023-02-22T15:58:10;17.00;37.90
9118;DHT22;4594;50.994;7.126;2023-02-22T16:00:50;17.00;38.00
9118;DHT22;4594;50.994;7.126;2023-02-22T16:03:25;16.90;37.90
9118;DHT22;4594;50.994;7.126;2023-02-22T16:05:58;16.90;38.00
9118;DHT22;4594;50.994;7.126;2023-02-22T16:08:25;16.90;38.00
9118;DHT22;4594;50.994;7.126;2023-02-22T16:11:01;16.80;37.90
9118;DHT22;4594;50.994;7.126;2023-02-22T16:13:32;16.80;37.80
9118;DHT22;4594;50.994;7.126;2023-02-22T16:16:02;16.80;37.90
9118;DHT22;4594;50.994;7.126;2023-02-22T16:18:36;16.70;37.90
9118;DHT22;4594;50.994;7.126;2023-02-22T16:21:07;16.70;37.90
9118;DHT22;4594;50.994;7.126;2023-02-22T16:23:51;16.70;37.90
9118;DHT22;4594;50.994;7.126;2023-02-22T16:26:28;16.70;37.80
9118;DHT22;4594;50.994;7.126;2023-02-22T16:29:00;16.60;37.80
9118;DHT22;4594;50.994;7.126;2023-02-22T16:31:37;16.60;37.90
9118;DHT22;4594;50.994;7.126;2023-02-22T16:34:07;16.50;37.80
9118;DHT22;4594;50.994;7.126;2023-02-22T16:36:42;16.50;37.90
9118;DHT22;4594;50.994;7.126;2023-02-22T16:39:30;16.40;37.80
9118;DHT22;4594;50.994;7.126;2023-02-22T16:41:59;16.40;37.80
9118;DHT22;4594;50.994;7.126;2023-02-22T16:44:27;16.30;37.90
9118;DHT22;4594;50.994;7.126;2023-02-22T16:46:55;16.30;37.90
9118;DHT22;4594;50.994;7.126;2023-02-22T16:49:25;16.20;37.90
9118;DHT22;4594;50.994;7.126;2023-02-22T16:51:58;16.20;37.90
9118;DHT22;4594;50.994;7.126;2023-02-22T16:54:28;16.10;37.80
9118;DHT22;4594;50.994;7.126;2023-02-22T16:57:00;16.10;37.90
9118;DHT22;4594;50.994;7.126;2023-02-22T16:59:31;16.20;38.10
9118;DHT22;4594;50.994;7.126;2023-02-22T17:02:00;16.00;38.00
9118;DHT22;4594;50.994;7.126;2023-02-22T17:04:31;15.90;38.00
9118;DHT22;4594;50.994;7.126;2023-02-22T17:06:58;15.90;38.00
9118;DHT22;4594;50.994;7.126;2023-02-22T17:09:24;15.80;37.90
9118;DHT22;4594;50.994;7.126;2023-02-22T17:11:52;15.60;37.80
9118;DHT22;4594;50.994;7.126;2023-02-22T17:14:21;15.70;38.20
9118;DHT22;4594;50.994;7.126;2023-02-22T17:16:52;15.60;37.80
9118;DHT22;4594;50.994;7.126;2023-02-22T17:19:21;15.60;37.90
9118;DHT22;4594;50.994;7.126;2023-02-22T17:21:49;15.50;37.80
9118;DHT22;4594;50.994;7.126;2023-02-22T17:24:21;15.40;37.80
9118;DHT22;4594;50.994;7.126;2023-02-22T17:26:49;15.40;37.90
9118;DHT22;4594;50.994;7.126;2023-02-22T17:29:16;15.30;37.90
9118;DHT22;4594;50.994;7.126;2023-02-22T17:31:43;15.20;37.80
9118;DHT22;4594;50.994;7.126;2023-02-22T17:34:09;15.20;37.90
9118;DHT22;4594;50.994;7.126;2023-02-22T17:36:35;15.10;37.90
9118;DHT22;4594;50.994;7.126;2023-02-22T17:39:01;15.10;37.90
9118;DHT22;4594;50.994;7.126;2023-02-22T17:41:28;15.00;37.90
9118;DHT22;4594;50.994;7.126;2023-02-22T17:43:54;15.00;38.00
9118;DHT22;4594;50.994;7.126;2023-02-22T17:46:25;14.90;38.00
9118;DHT22;4594;50.994;7.126;2023-02-22T17:48:51;14.90;38.00
9118;DHT22;4594;50.994;7.126;2023-02-22T17:51:21;14.90;38.40
9118;DHT22;4594;50.994;7.126;2023-02-22T17:53:49;14.80;38.10
9118;DHT22;4594;50.994;7.126;2023-02-22T17:56:16;14.70;38.10
9118;DHT22;4594;50.994;7.126;2023-02-22T17:58:44;14.70;38.10
9118;DHT22;4594;50.994;7.126;2023-02-22T18:03:45;14.60;38.20
9118;DHT22;4594;50.994;7.126;2023-02-22T18:06:16;14.60;38.20
9118;DHT22;4594;50.994;7.126;2023-02-22T18:08:45;14.50;38.20
9118;DHT22;4594;50.994;7.126;2023-02-22T18:11:12;14.50;38.20
9118;DHT22;4594;50.994;7.126;2023-02-22T18:13:41;14.50;38.20
9118;DHT22;4594;50.994;7.126;2023-02-22T18:16:08;14.40;38.20
9118;DHT22;4594;50.994;7.126;2023-02-22T18:18:34;14.40;38.20
9118;DHT22;4594;50.994;7.126;2023-02-22T18:21:00;14.30;38.10
9118;DHT22;4594;50.994;7.126;2023-02-22T18:23:29;14.30;38.20
9118;DHT22;4594;50.994;7.126;2023-02-22T18:25:56;14.20;38.10
9118;DHT22;4594;50.994;7.126;2023-02-22T18:28:23;14.20;38.20
9118;DHT22;4594;50.994;7.126;2023-02-22T18:30:49;14.20;38.20
9118;DHT22;4594;50.994;7.126;2023-02-22T18:33:16;14.10;38.20
9118;DHT22;4594;50.994;7.126;2023-02-22T18:35:46;14.10;38.30
9118;DHT22;4594;50.994;7.126;2023-02-22T18:38:20;14.00;38.20
9118;DHT22;4594;50.994;7.126;2023-02-22T18:41:04;14.00;38.20
9118;DHT22;4594;50.994;7.126;2023-02-22T18:43:31;14.00;38.30
9118;DHT22;4594;50.994;7.126;2023-02-22T18:46:23;13.90;38.20
9118;DHT22;4594;50.994;7.126;2023-02-22T18:48:52;13.90;38.40
9118;DHT22;4594;50.994;7.126;2023-02-22T18:51:19;13.90;38.30
9118;DHT22;4594;50.994;7.126;2023-02-22T18:53:45;13.80;38.30
9118;DHT22;4594;50.994;7.126;2023-02-22T18:56:14;13.80;38.40
9118;DHT22;4594;50.994;7.126;2023-02-22T18:58:41;13.80;38.50
9118;DHT22;4594;50.994;7.126;2023-02-22T19:01:16;13.80;38.50
9118;DHT22;4594;50.994;7.126;2023-02-22T19:03:43;13.70;38.50
9118;DHT22;4594;50.994;7.126;2023-02-22T19:06:12;13.70;38.50